Time;durP1;ratioP1;P1;durP2;ratioP2;P2;SDS_P1;SDS_P2;PMS_P1;PMS_P2;Temp;Humidity;BMP_temperature;BMP_pressure;BME280_temperature;BME280_humidity;BME280_pressure;Samples;Min_cycle;Max_cycle;Signal;HPM_P1;HPM_P2
2021/06/27 00:01:26;;;;;;;7.40;5.97;;;;;;;;;;5001615;28;20088;-83
2021/06/27 00:03:56;;;;;;;8.18;6.72;;;;;;;;;;5001276;28;20046;-84
2021/06/27 00:06:24;;;;;;;8.63;6.45;;;;;;;;;;5001714;28;20039;-84
2021/06/27 00:08:51;;;;;;;7.68;6.03;;;;;;;;;;5001036;28;20092;-84
2021/06/27 00:11:24;;;;;;;7.70;6.57;;;;;;;;;;5008268;28;20046;-84
2021/06/27 00:13:51;;;;;;;7.05;6.00;;;;;;;;;;5020296;28;20111;-84
2021/06/27 00:16:19;;;;;;;7.68;6.35;;;;;;;;;;5020350;28;20092;-83
2021/06/27 00:18:46;;;;;;;6.30;5.55;;;;;;;;;;5022127;28;20050;-85
2021/06/27 00:21:15;;;;;;;7.05;5.78;;;;;;;;;;5020711;28;20046;-85
2021/06/27 00:23:52;;;;;;;6.95;5.80;;;;;;;;;;5026881;28;20049;-85
2021/06/27 00:26:25;;;;;;;8.52;6.57;;;;;;;;;;5032867;28;20056;-84
2021/06/27 00:28:53;;;;;;;7.82;6.22;;;;;;;;;;5025176;28;20052;-84
2021/06/27 00:31:20;;;;;;;7.38;5.80;;;;;;;;;;5020449;28;20062;-85
2021/06/27 00:33:47;;;;;;;7.45;5.93;;;;;;;;;;5019248;28;20057;-86
2021/06/27 00:36:14;;;;;;;6.90;6.15;;;;;;;;;;5021102;28;20066;-84
2021/06/27 00:38:42;;;;;;;6.75;5.88;;;;;;;;;;5024408;28;20053;-84
2021/06/27 00:41:09;;;;;;;7.50;6.18;;;;;;;;;;5023535;28;20046;-84
2021/06/27 00:43:37;;;;;;;7.70;6.10;;;;;;;;;;5023552;28;20495;-84
2021/06/27 00:46:04;;;;;;;6.85;6.13;;;;;;;;;;5024112;28;20046;-84
2021/06/27 00:48:30;;;;;;;7.95;6.97;;;;;;;;;;5023190;28;20046;-84
2021/06/27 00:50:59;;;;;;;8.82;6.72;;;;;;;;;;5022568;28;20050;-84
2021/06/27 00:53:27;;;;;;;8.95;7.20;;;;;;;;;;5022784;28;20050;-85
2021/06/27 00:55:56;;;;;;;8.55;7.00;;;;;;;;;;5023209;28;20072;-83
2021/06/27 00:58:27;;;;;;;8.63;7.07;;;;;;;;;;5023079;28;20050;-85
2021/06/27 01:00:56;;;;;;;8.75;7.28;;;;;;;;;;5026267;28;20053;-86
2021/06/27 01:03:22;;;;;;;7.30;6.50;;;;;;;;;;5039749;28;20073;-86
2021/06/27 01:05:50;;;;;;;7.57;5.85;;;;;;;;;;5039648;28;20084;-87
2021/06/27 01:08:18;;;;;;;8.15;6.70;;;;;;;;;;5039497;28;20105;-83
2021/06/27 01:10:51;;;;;;;7.60;6.60;;;;;;;;;;5034131;28;20043;-84
2021/06/27 01:13:24;;;;;;;8.30;6.57;;;;;;;;;;5005492;28;20106;-84
2021/06/27 01:15:51;;;;;;;9.07;7.00;;;;;;;;;;5004545;28;20110;-85
2021/06/27 01:18:18;;;;;;;7.88;6.75;;;;;;;;;;5003389;28;20050;-84
2021/06/27 01:20:47;;;;;;;8.15;6.20;;;;;;;;;;5003899;28;20585;-85
2021/06/27 01:23:18;;;;;;;8.30;6.68;;;;;;;;;;5003896;28;20074;-84
2021/06/27 01:25:47;;;;;;;7.40;6.38;;;;;;;;;;5009419;28;20050;-84
2021/06/27 01:28:14;;;;;;;7.38;6.50;;;;;;;;;;5013702;28;20043;-83
2021/06/27 01:30:42;;;;;;;7.95;6.60;;;;;;;;;;5009005;28;20043;-86
2021/06/27 01:33:13;;;;;;;7.68;6.72;;;;;;;;;;5009968;28;20057;-86
2021/06/27 01:35:41;;;;;;;8.10;6.72;;;;;;;;;;4999673;28;20085;-84
2021/06/27 01:38:08;;;;;;;7.38;5.90;;;;;;;;;;4996420;28;20054;-82
2021/06/27 01:40:36;;;;;;;8.95;7.22;;;;;;;;;;4996966;28;20058;-83
2021/06/27 01:43:14;;;;;;;7.25;6.35;;;;;;;;;;4996987;28;20050;-82
2021/06/27 01:45:45;;;;;;;8.13;7.25;;;;;;;;;;4996857;28;20065;-83
2021/06/27 01:48:13;;;;;;;8.15;6.30;;;;;;;;;;4997196;28;20046;-84
2021/06/27 01:50:42;;;;;;;8.13;7.32;;;;;;;;;;4997289;28;20046;-84
2021/06/27 01:53:11;;;;;;;7.30;6.15;;;;;;;;;;4998513;28;20496;-83
2021/06/27 01:55:40;;;;;;;7.65;6.85;;;;;;;;;;5000312;28;20050;-82
2021/06/27 01:58:07;;;;;;;7.75;6.30;;;;;;;;;;4999246;28;20416;-83
2021/06/27 02:00:35;;;;;;;6.57;5.68;;;;;;;;;;4989072;28;20050;-84
2021/06/27 02:03:03;;;;;;;7.20;5.97;;;;;;;;;;4979415;28;20070;-84
2021/06/27 02:05:31;;;;;;;8.07;6.47;;;;;;;;;;4978760;28;20049;-83
2021/06/27 02:07:59;;;;;;;6.60;5.90;;;;;;;;;;4977899;28;20062;-83
2021/06/27 02:10:29;;;;;;;7.38;6.10;;;;;;;;;;4979064;28;20098;-82
2021/06/27 02:12:59;;;;;;;7.72;6.15;;;;;;;;;;4981399;28;20046;-83
2021/06/27 02:15:26;;;;;;;;;;;;;;;;;;4980586;28;20125;-82
2021/06/27 02:17:55;;;;;;;6.78;5.55;;;;;;;;;;4980828;28;19922;-82
2021/06/27 02:20:25;;;;;;;7.18;6.15;;;;;;;;;;4987820;28;20051;-84
2021/06/27 02:22:52;;;;;;;7.10;5.30;;;;;;;;;;4996971;28;20110;-83
2021/06/27 02:25:18;;;;;;;6.75;5.15;;;;;;;;;;4999083;28;20089;-84
2021/06/27 02:27:45;;;;;;;7.63;5.88;;;;;;;;;;4999232;28;20046;-85
2021/06/27 02:30:15;;;;;;;7.30;5.38;;;;;;;;;;4985047;28;20102;-82
2021/06/27 02:32:43;;;;;;;7.93;5.63;;;;;;;;;;4981092;28;20116;-83
2021/06/27 02:35:12;;;;;;;7.13;5.60;;;;;;;;;;4986370;28;20062;-84
2021/06/27 02:37:40;;;;;;;6.43;5.18;;;;;;;;;;4976335;28;20413;-84
2021/06/27 02:40:10;;;;;;;6.93;4.97;;;;;;;;;;4976648;28;20046;-83
2021/06/27 02:42:37;;;;;;;6.28;5.05;;;;;;;;;;4975002;28;20051;-83
2021/06/27 02:45:06;;;;;;;6.53;4.88;;;;;;;;;;4976115;28;20053;-84
2021/06/27 02:47:36;;;;;;;7.23;4.73;;;;;;;;;;4988400;28;20082;-83
2021/06/27 02:50:05;;;;;;;6.55;4.70;;;;;;;;;;4982071;28;20292;-83
2021/06/27 02:52:32;;;;;;;6.78;4.32;;;;;;;;;;4975075;28;20097;-83
2021/06/27 02:55:00;;;;;;;7.32;4.95;;;;;;;;;;4980567;28;20053;-84
2021/06/27 02:57:26;;;;;;;5.93;4.47;;;;;;;;;;4995869;28;20050;-84
2021/06/27 02:59:53;;;;;;;6.28;4.72;;;;;;;;;;4978391;28;20518;-84
2021/06/27 03:02:20;;;;;;;6.20;4.68;;;;;;;;;;4984204;28;20054;-84
2021/06/27 03:04:49;;;;;;;5.63;4.53;;;;;;;;;;4975543;28;20058;-84
2021/06/27 03:07:16;;;;;;;5.20;4.15;;;;;;;;;;4974962;28;20058;-84
2021/06/27 03:09:45;;;;;;;5.78;4.30;;;;;;;;;;4974907;28;20046;-84
2021/06/27 03:12:12;;;;;;;6.70;4.05;;;;;;;;;;4974140;28;20057;-84
2021/06/27 03:14:40;;;;;;;6.75;3.80;;;;;;;;;;4975138;28;20074;-84
2021/06/27 03:17:07;;;;;;;5.10;4.25;;;;;;;;;;4975086;28;20049;-83
2021/06/27 03:19:34;;;;;;;5.53;4.45;;;;;;;;;;4975491;28;20057;-84
2021/06/27 03:22:02;;;;;;;6.45;4.25;;;;;;;;;;4974527;28;20053;-84
2021/06/27 03:24:30;;;;;;;5.20;3.70;;;;;;;;;;4975603;28;20062;-83
2021/06/27 03:26:57;;;;;;;6.25;4.25;;;;;;;;;;4975505;28;20054;-84
2021/06/27 03:29:24;;;;;;;5.07;3.70;;;;;;;;;;4975552;28;20051;-84
2021/06/27 03:31:51;;;;;;;5.22;3.78;;;;;;;;;;4974703;28;20050;-84
2021/06/27 03:34:18;;;;;;;5.28;3.97;;;;;;;;;;4975187;28;20057;-84
2021/06/27 03:36:45;;;;;;;4.97;3.90;;;;;;;;;;4975636;28;20081;-84
2021/06/27 03:39:15;;;;;;;5.68;3.83;;;;;;;;;;4975178;28;20047;-85
2021/06/27 03:41:45;;;;;;;4.70;3.53;;;;;;;;;;4974481;28;20106;-84
2021/06/27 03:44:13;;;;;;;4.68;3.28;;;;;;;;;;4975144;28;20126;-84
2021/06/27 03:46:40;;;;;;;5.40;3.78;;;;;;;;;;4975142;28;20069;-84
2021/06/27 03:49:07;;;;;;;5.50;3.42;;;;;;;;;;4974224;28;20055;-85
2021/06/27 03:51:34;;;;;;;5.03;3.60;;;;;;;;;;4973849;28;20054;-85
2021/06/27 03:54:00;;;;;;;5.07;3.60;;;;;;;;;;4975121;28;20043;-84
2021/06/27 03:56:29;;;;;;;4.65;3.53;;;;;;;;;;4974880;28;20053;-85
2021/06/27 03:58:56;;;;;;;5.70;3.60;;;;;;;;;;4975423;28;20070;-85
2021/06/27 04:01:22;;;;;;;4.85;3.20;;;;;;;;;;4990390;28;20050;-85
2021/06/27 04:03:50;;;;;;;4.82;3.50;;;;;;;;;;4994060;28;20093;-85
2021/06/27 04:06:17;;;;;;;4.40;3.30;;;;;;;;;;4994270;28;20062;-84
2021/06/27 04:08:43;;;;;;;4.30;3.00;;;;;;;;;;4994100;28;20061;-84
2021/06/27 04:11:10;;;;;;;5.28;3.40;;;;;;;;;;5000883;28;20045;-84
2021/06/27 04:13:39;;;;;;;5.00;3.42;;;;;;;;;;5021914;28;20050;-85
2021/06/27 04:16:07;;;;;;;4.70;3.33;;;;;;;;;;5018656;28;20057;-84
2021/06/27 04:18:35;;;;;;;4.70;3.38;;;;;;;;;;5019161;28;20056;-85
2021/06/27 04:21:02;;;;;;;4.93;3.53;;;;;;;;;;5018507;28;20554;-84
2021/06/27 04:23:31;;;;;;;6.43;3.33;;;;;;;;;;5024878;28;20038;-84
2021/06/27 04:25:58;;;;;;;5.15;3.70;;;;;;;;;;5039236;28;20076;-83
2021/06/27 04:28:25;;;;;;;4.80;3.45;;;;;;;;;;5039771;28;20041;-83
2021/06/27 04:30:53;;;;;;;5.07;3.53;;;;;;;;;;5022123;28;20042;-84
2021/06/27 04:33:20;;;;;;;5.90;3.47;;;;;;;;;;5017865;28;20101;-85
2021/06/27 04:35:47;;;;;;;6.45;3.47;;;;;;;;;;5018911;28;20051;-84
2021/06/27 04:38:17;;;;;;;4.30;3.30;;;;;;;;;;5020647;28;20052;-85
2021/06/27 04:40:44;;;;;;;;;;;;;;;;;;5020399;28;20054;-84
2021/06/27 04:43:11;;;;;;;4.97;3.60;;;;;;;;;;5017575;28;19922;-84
2021/06/27 04:45:40;;;;;;;5.00;3.40;;;;;;;;;;5017757;28;20049;-84
2021/06/27 04:48:09;;;;;;;4.55;3.30;;;;;;;;;;5017633;28;20483;-84
2021/06/27 04:50:37;;;;;;;5.70;3.70;;;;;;;;;;5016870;28;20050;-84
2021/06/27 04:53:04;;;;;;;4.75;3.08;;;;;;;;;;5017063;28;20859;-85
2021/06/27 04:55:31;;;;;;;5.30;3.30;;;;;;;;;;5017682;28;20119;-83
2021/06/27 04:57:58;;;;;;;4.93;3.30;;;;;;;;;;5017243;28;20422;-85
2021/06/27 05:00:25;;;;;;;5.88;3.10;;;;;;;;;;5009834;28;20054;-84
2021/06/27 05:02:52;;;;;;;4.70;3.40;;;;;;;;;;4997814;28;20050;-85
2021/06/27 05:05:20;;;;;;;5.28;3.05;;;;;;;;;;4997808;28;20047;-84
2021/06/27 05:07:47;;;;;;;4.30;3.10;;;;;;;;;;4998045;28;20470;-85
2021/06/27 05:10:14;;;;;;;5.57;3.65;;;;;;;;;;4998089;28;20042;-84
2021/06/27 05:12:41;;;;;;;5.28;3.42;;;;;;;;;;5017274;28;20057;-83
2021/06/27 05:15:10;;;;;;;4.72;3.30;;;;;;;;;;5018306;28;20312;-84
2021/06/27 05:17:37;;;;;;;4.53;3.40;;;;;;;;;;5019679;28;20065;-84
2021/06/27 05:20:05;;;;;;;4.30;3.25;;;;;;;;;;5066263;22;20119;-82
2021/06/27 05:22:33;;;;;;;5.05;3.40;;;;;;;;;;5049731;28;20049;-82
2021/06/27 05:25:00;;;;;;;4.28;3.42;;;;;;;;;;5052516;28;20067;-81
2021/06/27 05:27:26;;;;;;;5.10;3.63;;;;;;;;;;5052149;28;20072;-81
2021/06/27 05:29:53;;;;;;;4.50;3.25;;;;;;;;;;5052927;28;20110;-80
2021/06/27 05:32:20;;;;;;;5.13;3.60;;;;;;;;;;5053088;28;20071;-82
2021/06/27 05:34:47;;;;;;;5.38;3.95;;;;;;;;;;5053192;28;20042;-81
2021/06/27 05:37:14;;;;;;;4.93;3.63;;;;;;;;;;5052324;28;20046;-80
2021/06/27 05:39:42;;;;;;;5.18;3.20;;;;;;;;;;5053002;28;20053;-81
2021/06/27 05:42:08;;;;;;;4.50;3.13;;;;;;;;;;5052559;28;20049;-82
2021/06/27 05:44:35;;;;;;;5.22;3.50;;;;;;;;;;5052762;28;20046;-82
2021/06/27 05:47:02;;;;;;;4.68;3.15;;;;;;;;;;5053363;28;20049;-82
2021/06/27 05:49:28;;;;;;;5.53;3.70;;;;;;;;;;5056942;28;20092;-81
2021/06/27 05:51:55;;;;;;;5.32;3.58;;;;;;;;;;5057960;28;20041;-81
2021/06/27 05:54:22;;;;;;;4.55;3.35;;;;;;;;;;5058144;28;20068;-82
2021/06/27 05:56:50;;;;;;;4.40;3.10;;;;;;;;;;5055218;28;20049;-82
2021/06/27 05:59:17;;;;;;;4.97;3.58;;;;;;;;;;5055523;28;20045;-82
2021/06/27 06:01:43;;;;;;;4.32;3.22;;;;;;;;;;5058281;28;20048;-82
2021/06/27 06:04:10;;;;;;;5.45;3.25;;;;;;;;;;5058235;28;20053;-82
2021/06/27 06:06:37;;;;;;;4.40;3.17;;;;;;;;;;5057797;28;20053;-83
2021/06/27 06:09:04;;;;;;;7.03;3.20;;;;;;;;;;5058308;28;20057;-83
2021/06/27 06:11:31;;;;;;;4.45;3.10;;;;;;;;;;5058590;28;20040;-83
2021/06/27 06:13:59;;;;;;;5.05;3.10;;;;;;;;;;5058586;28;20037;-83
2021/06/27 06:16:26;;;;;;;4.22;2.72;;;;;;;;;;5058951;28;20037;-83
2021/06/27 06:18:53;;;;;;;4.15;3.05;;;;;;;;;;5058595;28;20041;-83
2021/06/27 06:21:19;;;;;;;5.30;2.83;;;;;;;;;;5058090;28;20056;-83
2021/06/27 06:23:46;;;;;;;4.40;2.83;;;;;;;;;;5058424;28;20067;-81
2021/06/27 06:26:13;;;;;;;3.45;2.25;;;;;;;;;;5058675;28;20049;-82
2021/06/27 06:28:40;;;;;;;4.63;2.72;;;;;;;;;;5058886;28;20049;-82
2021/06/27 06:31:09;;;;;;;4.68;2.50;;;;;;;;;;5058286;28;20092;-82
2021/06/27 06:33:36;;;;;;;6.55;2.40;;;;;;;;;;5057628;28;20034;-82
2021/06/27 06:36:04;;;;;;;5.22;2.90;;;;;;;;;;5057843;28;20033;-80
2021/06/27 06:38:31;;;;;;;3.85;2.60;;;;;;;;;;5057707;28;20099;-81
2021/06/27 06:40:57;;;;;;;4.00;2.50;;;;;;;;;;5057482;28;20068;-80
2021/06/27 06:43:24;;;;;;;3.97;2.15;;;;;;;;;;5057810;28;20084;-80
2021/06/27 06:45:51;;;;;;;3.13;1.90;;;;;;;;;;5058320;28;20060;-79
2021/06/27 06:48:19;;;;;;;3.58;2.28;;;;;;;;;;5058295;28;20042;-80
2021/06/27 06:50:46;;;;;;;4.57;2.17;;;;;;;;;;5057991;28;20044;-80
2021/06/27 06:53:12;;;;;;;3.40;2.00;;;;;;;;;;5058047;28;20044;-80
2021/06/27 06:55:39;;;;;;;4.03;2.30;;;;;;;;;;5058548;28;20052;-80
2021/06/27 06:58:06;;;;;;;2.95;1.90;;;;;;;;;;5058119;28;20087;-80
2021/06/27 07:00:33;;;;;;;2.40;1.60;;;;;;;;;;5057290;28;20037;-80
2021/06/27 07:03:00;;;;;;;3.10;1.70;;;;;;;;;;5058175;28;20072;-81
2021/06/27 07:05:28;;;;;;;3.63;1.80;;;;;;;;;;5047873;28;20049;-82
2021/06/27 07:07:55;;;;;;;3.20;1.60;;;;;;;;;;5037182;28;20049;-82
2021/06/27 07:10:22;;;;;;;5.90;2.47;;;;;;;;;;5038217;28;20559;-82
2021/06/27 07:12:48;;;;;;;4.22;1.73;;;;;;;;;;5038381;28;20041;-83
2021/06/27 07:15:16;;;;;;;2.53;1.65;;;;;;;;;;5037366;28;20107;-84
2021/06/27 07:17:42;;;;;;;3.35;2.10;;;;;;;;;;5035243;28;20409;-83
2021/06/27 07:20:11;;;;;;;3.38;1.83;;;;;;;;;;5035055;28;20508;-82
2021/06/27 07:22:39;;;;;;;3.03;1.70;;;;;;;;;;5034253;28;20095;-82
2021/06/27 07:25:07;;;;;;;2.67;1.60;;;;;;;;;;5044449;28;20045;-82
2021/06/27 07:27:35;;;;;;;4.30;1.88;;;;;;;;;;5050762;28;20071;-80
2021/06/27 07:30:02;;;;;;;3.35;1.45;;;;;;;;;;5044200;28;20560;-82
2021/06/27 07:32:29;;;;;;;3.08;1.67;;;;;;;;;;5040619;28;20052;-82
2021/06/27 07:34:55;;;;;;;3.05;1.67;;;;;;;;;;5035963;28;20064;-82
2021/06/27 07:37:22;;;;;;;2.75;1.92;;;;;;;;;;5036482;28;20497;-82
2021/06/27 07:39:53;;;;;;;6.35;2.67;;;;;;;;;;5037436;28;20053;-83
2021/06/27 07:42:22;;;;;;;4.30;1.90;;;;;;;;;;5036004;28;20045;-81
2021/06/27 07:44:50;;;;;;;3.22;1.88;;;;;;;;;;5036102;28;20084;-82
2021/06/27 07:47:21;;;;;;;5.38;2.00;;;;;;;;;;5036523;28;20049;-82
2021/06/27 07:49:48;;;;;;;3.05;1.40;;;;;;;;;;5037255;28;20118;-82
2021/06/27 07:52:15;;;;;;;3.15;1.55;;;;;;;;;;5034710;28;20083;-82
2021/06/27 07:54:45;;;;;;;4.78;1.55;;;;;;;;;;5039694;28;20065;-81
2021/06/27 07:57:19;;;;;;;4.88;1.70;;;;;;;;;;5038167;28;20050;-83
2021/06/27 07:59:45;;;;;;;4.32;2.75;;;;;;;;;;5035459;28;20124;-81
2021/06/27 08:02:12;;;;;;;3.83;2.28;;;;;;;;;;5035658;28;20042;-82
2021/06/27 08:04:39;;;;;;;2.30;1.40;;;;;;;;;;5035325;28;20065;-80
2021/06/27 08:07:09;;;;;;;2.67;1.50;;;;;;;;;;5036022;28;20045;-83
2021/06/27 08:09:37;;;;;;;4.53;1.55;;;;;;;;;;5035783;28;20052;-83
2021/06/27 08:12:04;;;;;;;3.85;2.00;;;;;;;;;;5035452;28;20045;-81
2021/06/27 08:14:32;;;;;;;5.22;3.45;;;;;;;;;;5035734;28;20057;-80
2021/06/27 08:16:59;;;;;;;3.83;1.65;;;;;;;;;;5036377;28;20045;-83
2021/06/27 08:19:25;;;;;;;4.38;2.20;;;;;;;;;;5036534;28;20053;-82
2021/06/27 08:21:52;;;;;;;6.05;2.83;;;;;;;;;;5036577;28;20060;-81
2021/06/27 08:24:19;;;;;;;3.20;1.98;;;;;;;;;;5036333;28;20057;-81
2021/06/27 08:26:46;;;;;;;4.70;2.20;;;;;;;;;;5036009;28;20049;-82
2021/06/27 08:29:13;;;;;;;2.63;1.55;;;;;;;;;;5034672;28;20410;-81
2021/06/27 08:31:46;;;;;;;3.63;2.10;;;;;;;;;;5034388;28;20049;-81
2021/06/27 08:34:13;;;;;;;2.50;1.60;;;;;;;;;;5035728;28;20095;-81
2021/06/27 08:36:40;;;;;;;3.13;1.90;;;;;;;;;;5035808;28;20081;-81
2021/06/27 08:39:11;;;;;;;5.75;2.17;;;;;;;;;;5036159;28;20100;-81
2021/06/27 08:41:37;;;;;;;3.20;1.65;;;;;;;;;;5036238;28;20056;-80
2021/06/27 08:44:13;;;;;;;2.55;1.50;;;;;;;;;;5036179;28;20045;-81
2021/06/27 08:46:46;;;;;;;2.38;1.40;;;;;;;;;;5035810;28;20053;-82
2021/06/27 08:49:17;;;;;;;3.10;1.80;;;;;;;;;;5036622;28;20049;-81
2021/06/27 08:51:44;;;;;;;3.53;2.20;;;;;;;;;;5035512;28;20049;-81
2021/06/27 08:54:14;;;;;;;2.90;1.55;;;;;;;;;;5035726;28;20046;-82
2021/06/27 08:56:43;;;;;;;2.95;1.58;;;;;;;;;;5036226;28;20055;-81
2021/06/27 08:59:10;;;;;;;3.25;1.70;;;;;;;;;;5040438;28;20111;-82
2021/06/27 09:01:40;;;;;;;2.97;1.88;;;;;;;;;;5040271;28;20045;-80
2021/06/27 09:04:15;;;;;;;4.43;2.03;;;;;;;;;;5043856;28;20064;-81
2021/06/27 09:06:45;;;;;;;3.22;1.73;;;;;;;;;;5042415;28;20092;-82
2021/06/27 09:09:17;;;;;;;7.97;1.95;;;;;;;;;;5045670;22;20077;-82
2021/06/27 09:12:02;;;;;;;2.78;1.63;;;;;;;;;;5014366;28;20491;-81
2021/06/27 09:14:40;;;;;;;3.63;2.03;;;;;;;;;;5023726;28;20133;-82
2021/06/27 09:17:17;;;;;;;3.42;2.15;;;;;;;;;;5021246;28;20133;-81
2021/06/27 09:20:08;;;;;;;3.55;2.05;;;;;;;;;;5020902;28;20057;-80
2021/06/27 09:22:40;;;;;;;4.75;2.47;;;;;;;;;;5020891;28;20573;-81
2021/06/27 09:25:21;;;;;;;3.08;1.98;;;;;;;;;;5020930;28;20058;-80
2021/06/27 09:28:00;;;;;;;3.40;1.80;;;;;;;;;;5019774;28;20096;-80
2021/06/27 09:30:31;;;;;;;4.50;2.40;;;;;;;;;;5024470;28;20092;-80
2021/06/27 09:33:14;;;;;;;3.78;2.08;;;;;;;;;;5022349;28;20049;-80
2021/06/27 09:36:17;;;;;;;3.45;2.35;;;;;;;;;;5020058;28;20052;-80
2021/06/27 09:38:51;;;;;;;4.15;2.55;;;;;;;;;;5020386;28;20100;-81
2021/06/27 09:41:52;;;;;;;3.85;2.40;;;;;;;;;;5018290;28;20046;-80
2021/06/27 09:44:20;;;;;;;5.43;2.90;;;;;;;;;;5022180;28;20115;-81
2021/06/27 09:49:34;;;;;;;4.10;2.20;;;;;;;;;;5009619;28;20076;-80
2021/06/27 09:52:14;;;;;;;4.78;2.67;;;;;;;;;;5019859;28;20050;-80
2021/06/27 09:55:18;;;;;;;4.15;2.40;;;;;;;;;;5020072;28;20041;-81
2021/06/27 09:57:48;;;;;;;6.25;2.60;;;;;;;;;;5018017;28;20054;-81
2021/06/27 10:00:40;;;;;;;3.47;2.08;;;;;;;;;;5012219;28;20042;-79
2021/06/27 10:03:15;;;;;;;4.45;2.13;;;;;;;;;;5003293;28;20050;-81
2021/06/27 10:06:20;;;;;;;2.88;2.00;;;;;;;;;;5001890;28;20058;-79
2021/06/27 10:09:15;;;;;;;3.92;2.38;;;;;;;;;;5001855;28;20042;-80
2021/06/27 10:12:06;;;;;;;5.85;2.40;;;;;;;;;;5014094;28;20078;-80
2021/06/27 10:14:35;;;;;;;3.67;2.50;;;;;;;;;;5018907;28;20058;-80
2021/06/27 10:17:04;;;;;;;3.20;2.10;;;;;;;;;;5029463;28;20088;-81
2021/06/27 10:19:34;;;;;;;4.32;2.10;;;;;;;;;;5020915;28;20050;-81
2021/06/27 10:22:03;;;;;;;4.85;2.40;;;;;;;;;;5022986;28;20132;-81
2021/06/27 10:24:41;;;;;;;3.50;2.33;;;;;;;;;;5022208;28;20056;-82
2021/06/27 10:27:24;;;;;;;3.60;2.33;;;;;;;;;;5020337;28;20080;-82
2021/06/27 10:29:51;;;;;;;4.55;2.40;;;;;;;;;;5031229;28;20077;-81
2021/06/27 10:32:20;;;;;;;3.42;2.38;;;;;;;;;;5031838;28;20510;-81
2021/06/27 10:34:49;;;;;;;3.45;2.22;;;;;;;;;;5028062;28;20042;-80
2021/06/27 10:37:20;;;;;;;4.03;2.58;;;;;;;;;;5034152;28;20045;-80
2021/06/27 10:40:01;;;;;;;4.43;2.53;;;;;;;;;;5024278;28;20049;-80
2021/06/27 10:42:56;;;;;;;4.50;2.33;;;;;;;;;;5020584;28;20046;-80
2021/06/27 10:45:24;;;;;;;6.68;5.45;;;;;;;;;;5019323;28;20045;-81
2021/06/27 10:47:51;;;;;;;4.88;3.20;;;;;;;;;;5020925;28;20114;-82
2021/06/27 10:50:23;;;;;;;3.90;2.47;;;;;;;;;;5046385;22;20046;-81
2021/06/27 10:53:07;;;;;;;2.83;2.10;;;;;;;;;;5037746;28;20041;-82
2021/06/27 11:02:20;;;;;;;6.60;5.10;;;;;;;;;;5049608;22;20058;-81
2021/06/27 11:05:21;;;;;;;5.25;3.22;;;;;;;;;;5038777;28;20061;-81
2021/06/27 11:07:48;;;;;;;4.38;3.08;;;;;;;;;;5039698;28;20068;-81
2021/06/27 11:10:32;;;;;;;3.75;2.50;;;;;;;;;;5081242;22;20076;-81
2021/06/27 11:13:44;;;;;;;3.20;2.05;;;;;;;;;;5017698;28;20072;-81
2021/06/27 11:19:25;;;;;;;15.90;14.30;;;;;;;;;;5007124;23;20056;-81
2021/06/27 11:22:11;;;;;;;5.38;2.95;;;;;;;;;;5042814;28;20041;-81
2021/06/27 11:24:38;;;;;;;3.60;2.42;;;;;;;;;;5043565;28;20561;-81
2021/06/27 11:27:06;;;;;;;4.35;2.50;;;;;;;;;;5042515;28;20483;-81
2021/06/27 11:29:47;;;;;;;5.43;3.53;;;;;;;;;;5043796;28;20053;-81
2021/06/27 11:32:37;;;;;;;4.07;2.67;;;;;;;;;;5049248;28;20103;-80
2021/06/27 11:35:08;;;;;;;4.22;2.88;;;;;;;;;;5049405;28;20045;-80
2021/06/27 11:37:43;;;;;;;4.57;2.97;;;;;;;;;;5049267;28;20045;-80
2021/06/27 11:40:11;;;;;;;3.97;2.58;;;;;;;;;;5048136;28;20093;-81
2021/06/27 11:42:48;;;;;;;3.35;2.30;;;;;;;;;;5048035;28;20053;-80
2021/06/27 11:45:41;;;;;;;3.65;2.50;;;;;;;;;;5048377;28;20052;-82
2021/06/27 11:48:09;;;;;;;3.85;2.85;;;;;;;;;;5042234;28;20053;-81
2021/06/27 11:50:39;;;;;;;3.75;2.60;;;;;;;;;;5040057;28;20072;-81
2021/06/27 11:53:08;;;;;;;4.05;2.45;;;;;;;;;;5039857;28;20042;-81
2021/06/27 11:55:38;;;;;;;4.60;3.28;;;;;;;;;;5038858;28;20049;-81
2021/06/27 11:58:06;;;;;;;4.63;3.30;;;;;;;;;;5039277;28;20111;-81
2021/06/27 12:00:36;;;;;;;4.55;3.65;;;;;;;;;;5037852;28;20115;-81
2021/06/27 12:03:05;;;;;;;4.90;3.55;;;;;;;;;;5045914;28;20068;-81
2021/06/27 12:05:32;;;;;;;5.13;3.93;;;;;;;;;;5045648;28;20104;-81
2021/06/27 12:08:07;;;;;;;4.45;3.35;;;;;;;;;;5038530;28;20095;-81
2021/06/27 12:10:34;;;;;;;5.28;3.30;;;;;;;;;;5038287;28;20096;-82
2021/06/27 12:13:02;;;;;;;4.45;2.80;;;;;;;;;;5039182;28;20115;-82
2021/06/27 12:15:36;;;;;;;4.07;2.85;;;;;;;;;;5041434;28;20050;-81
2021/06/27 12:18:06;;;;;;;4.00;2.78;;;;;;;;;;5039599;28;20109;-80
2021/06/27 12:20:35;;;;;;;3.63;2.63;;;;;;;;;;5038640;28;20060;-80
2021/06/27 12:23:05;;;;;;;4.28;2.95;;;;;;;;;;5040480;28;20053;-81
2021/06/27 12:25:34;;;;;;;4.75;3.47;;;;;;;;;;5040368;28;20049;-81
2021/06/27 12:28:04;;;;;;;6.80;5.78;;;;;;;;;;5040949;28;20073;-82
2021/06/27 12:30:45;;;;;;;3.95;3.00;;;;;;;;;;5037973;28;20529;-81
2021/06/27 12:33:16;;;;;;;4.10;2.75;;;;;;;;;;5041288;28;20050;-82
2021/06/27 12:35:45;;;;;;;3.10;2.42;;;;;;;;;;5043259;28;20048;-81
2021/06/27 12:38:14;;;;;;;4.15;2.60;;;;;;;;;;5044058;28;20099;-82
2021/06/27 12:40:43;;;;;;;;;;;;;;;;;;5045169;28;20107;-81
2021/06/27 12:43:24;;;;;;;4.82;3.95;;;;;;;;;;5048567;28;19921;-82
2021/06/27 12:46:29;;;;;;;5.10;3.20;;;;;;;;;;5051212;28;20053;-82
2021/06/27 12:49:24;;;;;;;3.70;2.28;;;;;;;;;;5046378;28;20430;-82
2021/06/27 12:51:58;;;;;;;3.60;2.42;;;;;;;;;;5043515;28;20084;-81
2021/06/27 12:54:28;;;;;;;3.78;2.25;;;;;;;;;;5050074;28;20072;-82
2021/06/27 12:57:04;;;;;;;7.30;5.20;;;;;;;;;;5053034;28;20045;-83
2021/06/27 12:59:45;;;;;;;4.43;2.80;;;;;;;;;;5042268;28;20136;-82
2021/06/27 13:02:17;;;;;;;4.10;2.70;;;;;;;;;;5044229;28;20050;-81
2021/06/27 13:04:56;;;;;;;4.68;3.30;;;;;;;;;;5052629;28;20053;-81
2021/06/27 13:07:25;;;;;;;4.30;2.58;;;;;;;;;;5056304;28;20049;-82
2021/06/27 13:10:10;;;;;;;4.95;2.53;;;;;;;;;;5051079;28;20053;-84
2021/06/27 13:12:52;;;;;;;4.32;2.50;;;;;;;;;;5042291;28;20045;-77
2021/06/27 13:15:21;;;;;;;4.18;2.40;;;;;;;;;;5044265;28;20084;-79
2021/06/27 13:17:48;;;;;;;3.60;2.60;;;;;;;;;;5042360;28;20563;-82
2021/06/27 13:20:17;;;;;;;4.95;3.58;;;;;;;;;;5041859;28;20111;-84
2021/06/27 13:23:14;;;;;;;4.05;2.50;;;;;;;;;;5040816;28;20100;-82
2021/06/27 13:25:54;;;;;;;4.65;2.33;;;;;;;;;;5041290;28;20079;-83
2021/06/27 13:28:34;;;;;;;4.25;2.60;;;;;;;;;;5042896;28;20050;-81
2021/06/27 13:31:03;;;;;;;6.30;5.05;;;;;;;;;;5043538;28;20067;-83
2021/06/27 13:33:31;;;;;;;6.97;5.77;;;;;;;;;;5043841;28;20120;-82
2021/06/27 13:36:05;;;;;;;5.50;2.63;;;;;;;;;;5043569;28;20049;-80
2021/06/27 13:38:32;;;;;;;5.22;3.13;;;;;;;;;;5040637;28;20552;-79
2021/06/27 13:41:01;;;;;;;6.70;5.40;;;;;;;;;;5039929;28;20049;-80
2021/06/27 13:43:29;;;;;;;6.13;4.20;;;;;;;;;;5040239;28;20140;-84
2021/06/27 13:45:56;;;;;;;4.20;2.90;;;;;;;;;;5042740;28;20073;-81
2021/06/27 13:48:24;;;;;;;5.03;2.55;;;;;;;;;;5040640;28;20091;-81
2021/06/27 13:50:50;;;;;;;3.70;2.65;;;;;;;;;;5040054;28;20244;-81
2021/06/27 13:53:18;;;;;;;4.22;3.28;;;;;;;;;;5041632;28;20045;-83
2021/06/27 13:55:45;;;;;;;5.40;2.83;;;;;;;;;;5044716;28;20056;-82
2021/06/27 13:58:14;;;;;;;6.07;4.45;;;;;;;;;;5042838;28;20061;-82
2021/06/27 14:00:41;;;;;;;4.50;2.80;;;;;;;;;;5046969;28;20049;-80
2021/06/27 14:03:12;;;;;;;4.78;3.33;;;;;;;;;;5050906;28;20041;-81
2021/06/27 14:05:39;;;;;;;4.35;2.85;;;;;;;;;;5040469;28;20053;-81
2021/06/27 14:08:06;;;;;;;3.67;2.70;;;;;;;;;;5038802;28;20203;-81
2021/06/27 14:10:33;;;;;;;3.45;2.47;;;;;;;;;;5040312;28;20049;-83
2021/06/27 14:13:00;;;;;;;5.72;3.00;;;;;;;;;;5039990;28;20111;-83
2021/06/27 14:15:29;;;;;;;4.93;3.03;;;;;;;;;;5040340;28;20045;-82
2021/06/27 14:17:56;;;;;;;3.85;2.90;;;;;;;;;;5039874;28;20064;-81
2021/06/27 14:20:24;;;;;;;3.42;2.60;;;;;;;;;;5041471;28;20056;-81
2021/06/27 14:22:51;;;;;;;3.83;2.60;;;;;;;;;;5042002;28;20073;-81
2021/06/27 14:25:18;;;;;;;3.95;2.92;;;;;;;;;;5044218;28;20085;-82
2021/06/27 14:27:45;;;;;;;5.78;3.00;;;;;;;;;;5046007;28;20045;-81
2021/06/27 14:30:13;;;;;;;4.30;3.03;;;;;;;;;;5042871;28;20490;-83
2021/06/27 14:32:42;;;;;;;7.57;2.95;;;;;;;;;;5040108;28;20050;-83
2021/06/27 14:35:11;;;;;;;5.50;4.80;;;;;;;;;;5039723;28;20060;-83
2021/06/27 14:37:40;;;;;;;4.55;3.38;;;;;;;;;;5042601;28;20052;-82
2021/06/27 14:40:09;;;;;;;6.03;4.00;;;;;;;;;;5041309;28;20049;-83
2021/06/27 14:42:36;;;;;;;3.90;3.00;;;;;;;;;;5043533;28;20049;-82
2021/06/27 14:45:04;;;;;;;4.20;3.20;;;;;;;;;;5044858;28;20058;-83
2021/06/27 14:47:30;;;;;;;4.63;3.80;;;;;;;;;;5042469;28;20045;-85
2021/06/27 14:49:59;;;;;;;4.90;3.20;;;;;;;;;;5042764;28;20045;-81
2021/06/27 14:52:26;;;;;;;4.10;3.28;;;;;;;;;;5042878;28;20057;-81
2021/06/27 14:54:52;;;;;;;4.88;3.40;;;;;;;;;;5044358;28;20050;-83
2021/06/27 14:57:20;;;;;;;4.32;2.70;;;;;;;;;;5041084;28;20054;-85
2021/06/27 14:59:47;;;;;;;5.63;4.43;;;;;;;;;;5042894;28;20061;-82
2021/06/27 15:02:14;;;;;;;3.97;3.20;;;;;;;;;;5042152;28;20053;-82
2021/06/27 15:04:41;;;;;;;4.70;4.00;;;;;;;;;;5043411;28;20049;-82
2021/06/27 15:07:09;;;;;;;3.80;3.08;;;;;;;;;;5042749;28;20053;-84
2021/06/27 15:09:36;;;;;;;4.78;2.88;;;;;;;;;;5042917;28;20049;-82
2021/06/27 15:12:05;;;;;;;8.65;7.93;;;;;;;;;;5039855;28;20061;-83
2021/06/27 15:14:32;;;;;;;5.78;4.70;;;;;;;;;;5039268;28;20060;-82